sensor_id;sensor_type;location;lat;lon;timestamp;P1;durP1;ratioP1;P2;durP2;ratioP2
49730;SDS011;35622;52.008;5.426;2022-11-18T00:01:13;10.70;;;4.15;;
49730;SDS011;35622;52.008;5.426;2022-11-18T00:03:40;6.78;;;3.80;;
49730;SDS011;35622;52.008;5.426;2022-11-18T00:06:06;8.27;;;4.13;;
49730;SDS011;35622;52.008;5.426;2022-11-18T00:08:36;8.38;;;3.75;;
49730;SDS011;35622;52.008;5.426;2022-11-18T00:11:05;8.43;;;3.30;;
49730;SDS011;35622;52.008;5.426;2022-11-18T00:13:32;10.48;;;4.03;;
49730;SDS011;35622;52.008;5.426;2022-11-18T00:16:17;7.82;;;4.25;;
49730;SDS011;35622;52.008;5.426;2022-11-18T00:18:42;10.93;;;4.18;;
49730;SDS011;35622;52.008;5.426;2022-11-18T00:21:09;7.03;;;4.18;;
49730;SDS011;35622;52.008;5.426;2022-11-18T00:23:35;7.15;;;4.10;;
49730;SDS011;35622;52.008;5.426;2022-11-18T00:26:06;8.75;;;4.00;;
49730;SDS011;35622;52.008;5.426;2022-11-18T00:28:33;17.45;;;4.80;;
49730;SDS011;35622;52.008;5.426;2022-11-18T00:31:02;11.73;;;4.18;;
49730;SDS011;35622;52.008;5.426;2022-11-18T00:33:30;16.23;;;4.60;;
49730;SDS011;35622;52.008;5.426;2022-11-18T00:35:56;9.60;;;3.92;;
49730;SDS011;35622;52.008;5.426;2022-11-18T00:38:23;6.60;;;4.13;;
49730;SDS011;35622;52.008;5.426;2022-11-18T00:40:57;8.13;;;3.90;;
49730;SDS011;35622;52.008;5.426;2022-11-18T00:43:23;11.63;;;4.47;;
49730;SDS011;35622;52.008;5.426;2022-11-18T00:45:49;12.88;;;4.80;;
49730;SDS011;35622;52.008;5.426;2022-11-18T00:48:14;7.25;;;4.22;;
49730;SDS011;35622;52.008;5.426;2022-11-18T00:50:45;16.23;;;5.38;;
49730;SDS011;35622;52.008;5.426;2022-11-18T00:53:12;10.50;;;4.85;;
49730;SDS011;35622;52.008;5.426;2022-11-18T00:55:37;9.68;;;4.90;;
49730;SDS011;35622;52.008;5.426;2022-11-18T00:58:03;11.23;;;4.57;;
49730;SDS011;35622;52.008;5.426;2022-11-18T01:00:28;11.45;;;4.63;;
49730;SDS011;35622;52.008;5.426;2022-11-18T01:02:54;11.60;;;4.30;;
49730;SDS011;35622;52.008;5.426;2022-11-18T01:05:19;13.32;;;4.40;;
49730;SDS011;35622;52.008;5.426;2022-11-18T01:07:45;8.52;;;4.07;;
49730;SDS011;35622;52.008;5.426;2022-11-18T01:10:11;4.32;;;3.00;;
49730;SDS011;35622;52.008;5.426;2022-11-18T01:12:36;13.25;;;4.30;;
49730;SDS011;35622;52.008;5.426;2022-11-18T01:15:20;8.25;;;3.95;;
49730;SDS011;35622;52.008;5.426;2022-11-18T01:17:46;13.57;;;4.22;;
49730;SDS011;35622;52.008;5.426;2022-11-18T01:20:11;8.02;;;3.95;;
49730;SDS011;35622;52.008;5.426;2022-11-18T01:22:37;10.52;;;4.63;;
49730;SDS011;35622;52.008;5.426;2022-11-18T01:25:02;5.78;;;3.42;;
49730;SDS011;35622;52.008;5.426;2022-11-18T01:27:28;8.63;;;4.30;;
49730;SDS011;35622;52.008;5.426;2022-11-18T01:29:55;8.23;;;4.65;;
49730;SDS011;35622;52.008;5.426;2022-11-18T01:32:20;12.02;;;4.07;;
49730;SDS011;35622;52.008;5.426;2022-11-18T01:34:46;14.10;;;4.95;;
49730;SDS011;35622;52.008;5.426;2022-11-18T01:37:12;10.27;;;4.20;;
49730;SDS011;35622;52.008;5.426;2022-11-18T01:39:37;7.05;;;4.13;;
49730;SDS011;35622;52.008;5.426;2022-11-18T01:42:03;11.00;;;4.45;;
49730;SDS011;35622;52.008;5.426;2022-11-18T01:47:27;8.60;;;3.90;;
49730;SDS011;35622;52.008;5.426;2022-11-18T01:49:59;8.02;;;3.65;;
49730;SDS011;35622;52.008;5.426;2022-11-18T01:52:26;7.57;;;4.35;;
49730;SDS011;35622;52.008;5.426;2022-11-18T01:54:54;10.23;;;3.72;;
49730;SDS011;35622;52.008;5.426;2022-11-18T01:57:23;7.55;;;3.53;;
49730;SDS011;35622;52.008;5.426;2022-11-18T01:59:52;8.50;;;3.50;;
49730;SDS011;35622;52.008;5.426;2022-11-18T02:02:21;7.55;;;4.00;;
49730;SDS011;35622;52.008;5.426;2022-11-18T02:04:47;7.47;;;3.42;;
49730;SDS011;35622;52.008;5.426;2022-11-18T02:07:15;11.98;;;3.88;;
49730;SDS011;35622;52.008;5.426;2022-11-18T02:09:42;8.32;;;3.53;;
49730;SDS011;35622;52.008;5.426;2022-11-18T02:12:08;7.13;;;3.03;;
49730;SDS011;35622;52.008;5.426;2022-11-18T02:14:36;9.65;;;4.13;;
49730;SDS011;35622;52.008;5.426;2022-11-18T02:17:20;10.85;;;3.80;;
49730;SDS011;35622;52.008;5.426;2022-11-18T02:25:13;8.52;;;3.67;;
49730;SDS011;35622;52.008;5.426;2022-11-18T02:30:41;8.80;;;4.25;;
49730;SDS011;35622;52.008;5.426;2022-11-18T02:33:16;8.02;;;3.95;;
49730;SDS011;35622;52.008;5.426;2022-11-18T02:35:53;8.85;;;4.13;;
49730;SDS011;35622;52.008;5.426;2022-11-18T02:38:27;7.63;;;4.85;;
49730;SDS011;35622;52.008;5.426;2022-11-18T02:41:03;8.40;;;4.72;;
49730;SDS011;35622;52.008;5.426;2022-11-18T02:43:34;8.20;;;4.55;;
49730;SDS011;35622;52.008;5.426;2022-11-18T02:46:09;10.50;;;5.35;;
49730;SDS011;35622;52.008;5.426;2022-11-18T02:48:39;10.35;;;5.00;;
49730;SDS011;35622;52.008;5.426;2022-11-18T02:51:08;7.80;;;4.63;;
49730;SDS011;35622;52.008;5.426;2022-11-18T02:53:36;8.98;;;5.07;;
49730;SDS011;35622;52.008;5.426;2022-11-18T02:56:04;8.88;;;4.65;;
49730;SDS011;35622;52.008;5.426;2022-11-18T02:58:32;8.05;;;4.72;;
49730;SDS011;35622;52.008;5.426;2022-11-18T03:00:58;7.80;;;5.25;;
49730;SDS011;35622;52.008;5.426;2022-11-18T03:06:37;10.90;;;4.97;;
49730;SDS011;35622;52.008;5.426;2022-11-18T03:11:30;9.52;;;4.70;;
49730;SDS011;35622;52.008;5.426;2022-11-18T03:14:19;9.10;;;4.47;;
49730;SDS011;35622;52.008;5.426;2022-11-18T03:17:16;9.98;;;4.68;;
49730;SDS011;35622;52.008;5.426;2022-11-18T03:22:32;12.07;;;4.78;;
49730;SDS011;35622;52.008;5.426;2022-11-18T03:25:28;9.00;;;4.82;;
49730;SDS011;35622;52.008;5.426;2022-11-18T03:30:35;10.88;;;4.97;;
49730;SDS011;35622;52.008;5.426;2022-11-18T03:33:05;9.82;;;4.95;;
49730;SDS011;35622;52.008;5.426;2022-11-18T03:35:34;10.63;;;4.32;;
49730;SDS011;35622;52.008;5.426;2022-11-18T03:38:07;10.30;;;5.10;;
49730;SDS011;35622;52.008;5.426;2022-11-18T03:40:40;8.65;;;4.78;;
49730;SDS011;35622;52.008;5.426;2022-11-18T03:43:12;10.27;;;4.93;;
49730;SDS011;35622;52.008;5.426;2022-11-18T03:45:46;12.93;;;4.68;;
49730;SDS011;35622;52.008;5.426;2022-11-18T03:48:22;10.90;;;4.80;;
49730;SDS011;35622;52.008;5.426;2022-11-18T03:50:54;10.40;;;4.75;;
49730;SDS011;35622;52.008;5.426;2022-11-18T03:53:33;11.10;;;5.40;;
49730;SDS011;35622;52.008;5.426;2022-11-18T03:56:04;8.30;;;4.45;;
49730;SDS011;35622;52.008;5.426;2022-11-18T03:58:35;12.25;;;5.00;;
49730;SDS011;35622;52.008;5.426;2022-11-18T04:01:08;8.63;;;4.85;;
49730;SDS011;35622;52.008;5.426;2022-11-18T04:03:37;6.35;;;4.28;;
49730;SDS011;35622;52.008;5.426;2022-11-18T04:06:04;12.00;;;5.20;;
49730;SDS011;35622;52.008;5.426;2022-11-18T04:08:38;8.25;;;4.20;;
49730;SDS011;35622;52.008;5.426;2022-11-18T04:11:14;14.38;;;5.75;;
49730;SDS011;35622;52.008;5.426;2022-11-18T04:14:03;9.80;;;4.88;;
49730;SDS011;35622;52.008;5.426;2022-11-18T04:16:37;9.30;;;5.05;;
49730;SDS011;35622;52.008;5.426;2022-11-18T04:19:06;8.38;;;4.63;;
49730;SDS011;35622;52.008;5.426;2022-11-18T04:21:32;8.25;;;4.45;;
49730;SDS011;35622;52.008;5.426;2022-11-18T04:23:57;9.38;;;4.30;;
49730;SDS011;35622;52.008;5.426;2022-11-18T04:26:23;6.95;;;4.32;;
49730;SDS011;35622;52.008;5.426;2022-11-18T04:28:49;60.35;;;6.00;;
49730;SDS011;35622;52.008;5.426;2022-11-18T04:31:14;30.23;;;5.07;;
49730;SDS011;35622;52.008;5.426;2022-11-18T04:33:40;9.88;;;4.68;;
49730;SDS011;35622;52.008;5.426;2022-11-18T04:36:05;6.65;;;3.50;;
49730;SDS011;35622;52.008;5.426;2022-11-18T04:38:31;4.65;;;3.22;;
49730;SDS011;35622;52.008;5.426;2022-11-18T04:40:57;7.15;;;4.00;;
49730;SDS011;35622;52.008;5.426;2022-11-18T04:43:22;60.28;;;5.47;;
49730;SDS011;35622;52.008;5.426;2022-11-18T04:45:48;7.85;;;3.80;;
49730;SDS011;35622;52.008;5.426;2022-11-18T04:48:13;9.02;;;3.67;;
49730;SDS011;35622;52.008;5.426;2022-11-18T04:50:39;7.68;;;4.18;;
49730;SDS011;35622;52.008;5.426;2022-11-18T04:53:05;11.47;;;3.53;;
49730;SDS011;35622;52.008;5.426;2022-11-18T04:55:34;7.70;;;4.35;;
49730;SDS011;35622;52.008;5.426;2022-11-18T04:58:00;5.70;;;4.28;;
49730;SDS011;35622;52.008;5.426;2022-11-18T05:00:25;9.77;;;4.65;;
49730;SDS011;35622;52.008;5.426;2022-11-18T05:02:51;11.10;;;4.30;;
49730;SDS011;35622;52.008;5.426;2022-11-18T05:05:17;6.68;;;3.92;;
49730;SDS011;35622;52.008;5.426;2022-11-18T05:07:43;5.93;;;4.05;;
49730;SDS011;35622;52.008;5.426;2022-11-18T05:10:08;7.90;;;3.78;;
49730;SDS011;35622;52.008;5.426;2022-11-18T05:12:34;12.70;;;5.18;;
49730;SDS011;35622;52.008;5.426;2022-11-18T05:15:18;7.45;;;4.45;;
49730;SDS011;35622;52.008;5.426;2022-11-18T05:17:45;9.95;;;3.83;;
49730;SDS011;35622;52.008;5.426;2022-11-18T05:20:11;8.25;;;3.42;;
49730;SDS011;35622;52.008;5.426;2022-11-18T05:22:37;6.28;;;3.42;;
49730;SDS011;35622;52.008;5.426;2022-11-18T05:25:04;7.00;;;3.50;;
49730;SDS011;35622;52.008;5.426;2022-11-18T05:27:31;8.27;;;3.67;;
49730;SDS011;35622;52.008;5.426;2022-11-18T05:29:56;5.55;;;3.38;;
49730;SDS011;35622;52.008;5.426;2022-11-18T05:32:22;4.88;;;3.42;;
49730;SDS011;35622;52.008;5.426;2022-11-18T05:34:47;6.47;;;3.88;;
49730;SDS011;35622;52.008;5.426;2022-11-18T05:37:13;6.10;;;3.65;;
49730;SDS011;35622;52.008;5.426;2022-11-18T05:39:39;5.35;;;3.30;;
49730;SDS011;35622;52.008;5.426;2022-11-18T05:42:04;5.93;;;3.50;;
49730;SDS011;35622;52.008;5.426;2022-11-18T05:44:48;8.65;;;3.92;;
49730;SDS011;35622;52.008;5.426;2022-11-18T05:47:15;6.07;;;3.60;;
49730;SDS011;35622;52.008;5.426;2022-11-18T05:49:41;5.57;;;3.57;;
49730;SDS011;35622;52.008;5.426;2022-11-18T05:52:07;7.72;;;3.88;;
49730;SDS011;35622;52.008;5.426;2022-11-18T05:54:32;8.63;;;3.60;;
49730;SDS011;35622;52.008;5.426;2022-11-18T05:56:58;7.17;;;3.73;;
49730;SDS011;35622;52.008;5.426;2022-11-18T05:59:24;11.77;;;4.20;;
49730;SDS011;35622;52.008;5.426;2022-11-18T06:01:51;5.05;;;2.90;;
49730;SDS011;35622;52.008;5.426;2022-11-18T06:04:28;7.33;;;3.23;;
49730;SDS011;35622;52.008;5.426;2022-11-18T06:07:02;5.53;;;3.85;;
49730;SDS011;35622;52.008;5.426;2022-11-18T06:09:34;8.50;;;3.92;;
49730;SDS011;35622;52.008;5.426;2022-11-18T06:12:02;5.90;;;3.83;;
49730;SDS011;35622;52.008;5.426;2022-11-18T06:14:38;7.00;;;3.58;;
49730;SDS011;35622;52.008;5.426;2022-11-18T06:17:11;7.28;;;3.80;;
49730;SDS011;35622;52.008;5.426;2022-11-18T06:19:58;9.38;;;3.40;;
49730;SDS011;35622;52.008;5.426;2022-11-18T06:22:24;8.60;;;3.73;;
49730;SDS011;35622;52.008;5.426;2022-11-18T06:24:50;5.43;;;3.10;;
49730;SDS011;35622;52.008;5.426;2022-11-18T06:27:15;7.07;;;3.90;;
49730;SDS011;35622;52.008;5.426;2022-11-18T06:29:42;6.97;;;3.10;;
49730;SDS011;35622;52.008;5.426;2022-11-18T06:32:07;14.60;;;3.63;;
49730;SDS011;35622;52.008;5.426;2022-11-18T06:34:33;10.67;;;4.10;;
49730;SDS011;35622;52.008;5.426;2022-11-18T06:36:59;6.87;;;3.80;;
49730;SDS011;35622;52.008;5.426;2022-11-18T06:39:24;10.23;;;3.60;;
49730;SDS011;35622;52.008;5.426;2022-11-18T06:41:53;8.60;;;3.90;;
49730;SDS011;35622;52.008;5.426;2022-11-18T06:44:18;5.43;;;4.00;;
49730;SDS011;35622;52.008;5.426;2022-11-18T06:46:44;12.80;;;4.53;;
49730;SDS011;35622;52.008;5.426;2022-11-18T06:49:25;6.90;;;4.30;;
49730;SDS011;35622;52.008;5.426;2022-11-18T06:51:51;9.30;;;4.97;;
49730;SDS011;35622;52.008;5.426;2022-11-18T06:54:17;7.45;;;4.32;;
49730;SDS011;35622;52.008;5.426;2022-11-18T06:56:43;8.60;;;4.50;;
49730;SDS011;35622;52.008;5.426;2022-11-18T06:59:09;7.15;;;4.32;;
49730;SDS011;35622;52.008;5.426;2022-11-18T07:01:35;9.85;;;4.53;;
49730;SDS011;35622;52.008;5.426;2022-11-18T07:04:02;7.47;;;4.83;;
49730;SDS011;35622;52.008;5.426;2022-11-18T07:06:30;8.40;;;3.97;;
49730;SDS011;35622;52.008;5.426;2022-11-18T07:08:58;6.37;;;4.17;;
49730;SDS011;35622;52.008;5.426;2022-11-18T07:11:26;10.50;;;4.77;;
49730;SDS011;35622;52.008;5.426;2022-11-18T07:13:52;8.10;;;4.80;;
49730;SDS011;35622;52.008;5.426;2022-11-18T07:16:22;12.87;;;4.90;;
49730;SDS011;35622;52.008;5.426;2022-11-18T07:18:50;7.28;;;4.07;;
49730;SDS011;35622;52.008;5.426;2022-11-18T07:21:17;6.23;;;3.90;;
49730;SDS011;35622;52.008;5.426;2022-11-18T07:23:45;11.83;;;4.30;;
49730;SDS011;35622;52.008;5.426;2022-11-18T07:26:11;7.63;;;4.95;;
49730;SDS011;35622;52.008;5.426;2022-11-18T07:28:37;5.80;;;3.55;;
49730;SDS011;35622;52.008;5.426;2022-11-18T07:31:08;8.45;;;5.00;;
49730;SDS011;35622;52.008;5.426;2022-11-18T07:33:36;6.63;;;4.63;;
49730;SDS011;35622;52.008;5.426;2022-11-18T07:38:35;11.18;;;4.13;;
49730;SDS011;35622;52.008;5.426;2022-11-18T07:41:08;6.85;;;4.25;;
49730;SDS011;35622;52.008;5.426;2022-11-18T07:43:35;9.45;;;4.70;;
49730;SDS011;35622;52.008;5.426;2022-11-18T07:46:14;9.05;;;4.68;;
49730;SDS011;35622;52.008;5.426;2022-11-18T07:48:49;11.65;;;4.55;;
49730;SDS011;35622;52.008;5.426;2022-11-18T07:51:17;9.40;;;4.45;;
49730;SDS011;35622;52.008;5.426;2022-11-18T07:53:44;7.63;;;4.40;;
49730;SDS011;35622;52.008;5.426;2022-11-18T07:56:10;8.90;;;4.60;;
49730;SDS011;35622;52.008;5.426;2022-11-18T07:58:37;7.05;;;4.47;;
49730;SDS011;35622;52.008;5.426;2022-11-18T08:01:16;7.45;;;4.60;;
49730;SDS011;35622;52.008;5.426;2022-11-18T08:03:43;7.13;;;4.47;;
49730;SDS011;35622;52.008;5.426;2022-11-18T08:06:10;7.78;;;4.45;;
49730;SDS011;35622;52.008;5.426;2022-11-18T08:08:38;9.82;;;5.00;;
49730;SDS011;35622;52.008;5.426;2022-11-18T08:11:05;8.40;;;5.13;;
49730;SDS011;35622;52.008;5.426;2022-11-18T08:13:32;5.82;;;4.18;;
49730;SDS011;35622;52.008;5.426;2022-11-18T08:15:59;6.93;;;3.97;;
49730;SDS011;35622;52.008;5.426;2022-11-18T08:18:26;7.15;;;4.35;;
49730;SDS011;35622;52.008;5.426;2022-11-18T08:20:53;8.05;;;4.72;;
49730;SDS011;35622;52.008;5.426;2022-11-18T08:23:18;8.07;;;5.07;;
49730;SDS011;35622;52.008;5.426;2022-11-18T08:25:44;9.15;;;5.03;;
49730;SDS011;35622;52.008;5.426;2022-11-18T08:28:10;8.80;;;4.90;;
49730;SDS011;35622;52.008;5.426;2022-11-18T08:30:38;13.52;;;5.57;;
49730;SDS011;35622;52.008;5.426;2022-11-18T08:33:04;11.30;;;6.40;;
49730;SDS011;35622;52.008;5.426;2022-11-18T08:35:30;11.45;;;5.22;;
49730;SDS011;35622;52.008;5.426;2022-11-18T08:37:57;12.35;;;5.25;;
49730;SDS011;35622;52.008;5.426;2022-11-18T08:40:23;7.80;;;4.95;;
49730;SDS011;35622;52.008;5.426;2022-11-18T08:42:50;8.63;;;4.93;;
49730;SDS011;35622;52.008;5.426;2022-11-18T08:45:15;8.93;;;4.75;;
49730;SDS011;35622;52.008;5.426;2022-11-18T08:47:41;10.77;;;4.88;;
49730;SDS011;35622;52.008;5.426;2022-11-18T08:50:07;9.52;;;5.05;;
49730;SDS011;35622;52.008;5.426;2022-11-18T08:52:35;7.85;;;5.05;;
49730;SDS011;35622;52.008;5.426;2022-11-18T08:55:00;8.68;;;5.10;;
49730;SDS011;35622;52.008;5.426;2022-11-18T08:57:26;9.07;;;5.28;;
49730;SDS011;35622;52.008;5.426;2022-11-18T08:59:52;9.70;;;5.32;;
49730;SDS011;35622;52.008;5.426;2022-11-18T09:02:19;9.25;;;5.13;;
49730;SDS011;35622;52.008;5.426;2022-11-18T09:04:46;10.63;;;5.40;;
49730;SDS011;35622;52.008;5.426;2022-11-18T09:07:13;9.52;;;5.28;;
49730;SDS011;35622;52.008;5.426;2022-11-18T09:09:38;9.18;;;4.95;;
49730;SDS011;35622;52.008;5.426;2022-11-18T09:12:04;9.20;;;4.78;;
49730;SDS011;35622;52.008;5.426;2022-11-18T09:14:30;11.48;;;4.90;;
49730;SDS011;35622;52.008;5.426;2022-11-18T09:16:55;8.75;;;4.40;;
49730;SDS011;35622;52.008;5.426;2022-11-18T09:19:22;8.05;;;4.60;;
49730;SDS011;35622;52.008;5.426;2022-11-18T09:21:48;8.18;;;4.70;;
49730;SDS011;35622;52.008;5.426;2022-11-18T09:24:14;9.00;;;4.60;;
49730;SDS011;35622;52.008;5.426;2022-11-18T09:26:40;7.32;;;4.22;;
49730;SDS011;35622;52.008;5.426;2022-11-18T09:29:05;8.70;;;4.30;;
49730;SDS011;35622;52.008;5.426;2022-11-18T09:31:32;6.95;;;4.20;;
49730;SDS011;35622;52.008;5.426;2022-11-18T09:33:58;8.57;;;4.72;;
49730;SDS011;35622;52.008;5.426;2022-11-18T09:36:24;9.43;;;4.43;;
49730;SDS011;35622;52.008;5.426;2022-11-18T09:38:51;7.90;;;4.30;;
49730;SDS011;35622;52.008;5.426;2022-11-18T09:49:53;7.05;;;3.78;;
49730;SDS011;35622;52.008;5.426;2022-11-18T09:52:24;10.32;;;4.18;;
49730;SDS011;35622;52.008;5.426;2022-11-18T09:55:00;7.22;;;4.10;;
49730;SDS011;35622;52.008;5.426;2022-11-18T09:57:37;6.68;;;4.00;;
49730;SDS011;35622;52.008;5.426;2022-11-18T10:00:14;10.68;;;4.40;;
49730;SDS011;35622;52.008;5.426;2022-11-18T10:02:59;9.82;;;4.50;;
49730;SDS011;35622;52.008;5.426;2022-11-18T10:05:30;7.45;;;4.05;;
49730;SDS011;35622;52.008;5.426;2022-11-18T10:10:34;8.38;;;4.18;;
49730;SDS011;35622;52.008;5.426;2022-11-18T10:24:10;6.28;;;3.83;;
49730;SDS011;35622;52.008;5.426;2022-11-18T10:26:45;6.07;;;3.80;;
49730;SDS011;35622;52.008;5.426;2022-11-18T10:29:11;8.13;;;3.42;;
49730;SDS011;35622;52.008;5.426;2022-11-18T10:34:26;6.75;;;3.20;;
49730;SDS011;35622;52.008;5.426;2022-11-18T10:39:27;10.55;;;3.50;;
49730;SDS011;35622;52.008;5.426;2022-11-18T10:42:03;6.60;;;3.17;;
49730;SDS011;35622;52.008;5.426;2022-11-18T10:44:37;5.97;;;3.25;;
49730;SDS011;35622;52.008;5.426;2022-11-18T10:49:54;7.78;;;3.35;;
49730;SDS011;35622;52.008;5.426;2022-11-18T10:52:22;7.05;;;3.38;;
49730;SDS011;35622;52.008;5.426;2022-11-18T10:57:55;9.48;;;3.65;;
49730;SDS011;35622;52.008;5.426;2022-11-18T11:00:42;10.70;;;3.30;;
49730;SDS011;35622;52.008;5.426;2022-11-18T11:03:24;8.60;;;3.05;;
49730;SDS011;35622;52.008;5.426;2022-11-18T11:08:46;8.82;;;3.40;;
49730;SDS011;35622;52.008;5.426;2022-11-18T11:11:30;9.10;;;3.25;;
49730;SDS011;35622;52.008;5.426;2022-11-18T11:19:29;6.85;;;3.80;;
49730;SDS011;35622;52.008;5.426;2022-11-18T11:22:18;8.93;;;3.50;;
49730;SDS011;35622;52.008;5.426;2022-11-18T11:24:44;7.13;;;3.40;;
49730;SDS011;35622;52.008;5.426;2022-11-18T11:27:32;6.82;;;2.88;;
49730;SDS011;35622;52.008;5.426;2022-11-18T11:30:07;7.13;;;3.00;;
49730;SDS011;35622;52.008;5.426;2022-11-18T11:32:55;8.07;;;3.33;;
49730;SDS011;35622;52.008;5.426;2022-11-18T11:35:56;7.88;;;3.55;;
49730;SDS011;35622;52.008;5.426;2022-11-18T11:38:42;7.30;;;3.22;;
49730;SDS011;35622;52.008;5.426;2022-11-18T11:41:25;8.05;;;4.07;;
49730;SDS011;35622;52.008;5.426;2022-11-18T11:47:11;10.05;;;3.47;;
49730;SDS011;35622;52.008;5.426;2022-11-18T11:55:55;8.52;;;3.38;;
49730;SDS011;35622;52.008;5.426;2022-11-18T12:06:19;5.60;;;3.70;;
49730;SDS011;35622;52.008;5.426;2022-11-18T12:08:52;9.35;;;3.92;;
49730;SDS011;35622;52.008;5.426;2022-11-18T12:11:42;9.30;;;3.95;;
49730;SDS011;35622;52.008;5.426;2022-11-18T12:14:26;8.55;;;4.30;;
49730;SDS011;35622;52.008;5.426;2022-11-18T12:17:05;6.53;;;4.82;;
49730;SDS011;35622;52.008;5.426;2022-11-18T12:19:45;9.45;;;5.00;;
49730;SDS011;35622;52.008;5.426;2022-11-18T12:22:10;9.45;;;5.00;;
49730;SDS011;35622;52.008;5.426;2022-11-18T12:27:04;9.25;;;5.53;;
49730;SDS011;35622;52.008;5.426;2022-11-18T12:34:59;8.60;;;5.53;;
49730;SDS011;35622;52.008;5.426;2022-11-18T12:46:07;9.55;;;5.80;;
49730;SDS011;35622;52.008;5.426;2022-11-18T12:50:57;8.32;;;5.57;;
49730;SDS011;35622;52.008;5.426;2022-11-18T12:58:59;9.90;;;5.60;;
49730;SDS011;35622;52.008;5.426;2022-11-18T13:01:29;11.05;;;6.35;;
49730;SDS011;35622;52.008;5.426;2022-11-18T13:06:39;9.98;;;6.40;;
49730;SDS011;35622;52.008;5.426;2022-11-18T13:09:16;9.23;;;6.10;;
49730;SDS011;35622;52.008;5.426;2022-11-18T13:11:53;16.00;;;6.68;;
49730;SDS011;35622;52.008;5.426;2022-11-18T13:14:35;9.95;;;6.35;;
49730;SDS011;35622;52.008;5.426;2022-11-18T13:17:33;9.13;;;5.72;;
49730;SDS011;35622;52.008;5.426;2022-11-18T13:20:19;13.55;;;6.07;;
49730;SDS011;35622;52.008;5.426;2022-11-18T13:22:55;12.70;;;6.50;;
49730;SDS011;35622;52.008;5.426;2022-11-18T13:25:41;11.57;;;5.97;;
49730;SDS011;35622;52.008;5.426;2022-11-18T13:31:26;11.25;;;7.22;;
49730;SDS011;35622;52.008;5.426;2022-11-18T13:34:18;10.23;;;6.32;;
49730;SDS011;35622;52.008;5.426;2022-11-18T13:36:46;10.93;;;7.03;;
49730;SDS011;35622;52.008;5.426;2022-11-18T13:39:24;11.27;;;7.75;;
49730;SDS011;35622;52.008;5.426;2022-11-18T13:44:33;11.23;;;8.07;;
49730;SDS011;35622;52.008;5.426;2022-11-18T13:52:39;10.77;;;6.97;;
49730;SDS011;35622;52.008;5.426;2022-11-18T13:55:13;12.68;;;7.68;;
49730;SDS011;35622;52.008;5.426;2022-11-18T13:57:49;13.00;;;7.28;;
49730;SDS011;35622;52.008;5.426;2022-11-18T14:00:22;12.00;;;7.28;;
49730;SDS011;35622;52.008;5.426;2022-11-18T14:02:59;11.43;;;7.25;;
49730;SDS011;35622;52.008;5.426;2022-11-18T14:05:29;10.55;;;7.72;;
49730;SDS011;35622;52.008;5.426;2022-11-18T14:08:02;12.38;;;8.30;;
49730;SDS011;35622;52.008;5.426;2022-11-18T14:10:41;15.23;;;8.20;;
49730;SDS011;35622;52.008;5.426;2022-11-18T14:13:19;14.38;;;8.93;;
49730;SDS011;35622;52.008;5.426;2022-11-18T14:15:46;13.45;;;8.30;;
49730;SDS011;35622;52.008;5.426;2022-11-18T14:18:31;11.27;;;7.78;;
49730;SDS011;35622;52.008;5.426;2022-11-18T14:20:59;14.45;;;7.57;;
49730;SDS011;35622;52.008;5.426;2022-11-18T14:23:27;12.57;;;7.78;;
49730;SDS011;35622;52.008;5.426;2022-11-18T14:25:53;13.88;;;8.02;;
49730;SDS011;35622;52.008;5.426;2022-11-18T14:28:22;13.48;;;7.88;;
49730;SDS011;35622;52.008;5.426;2022-11-18T14:31:03;10.45;;;7.00;;
49730;SDS011;35622;52.008;5.426;2022-11-18T14:33:41;11.35;;;7.68;;
49730;SDS011;35622;52.008;5.426;2022-11-18T14:36:10;14.70;;;8.77;;
49730;SDS011;35622;52.008;5.426;2022-11-18T14:38:49;13.75;;;8.30;;
49730;SDS011;35622;52.008;5.426;2022-11-18T14:41:16;11.35;;;8.05;;
49730;SDS011;35622;52.008;5.426;2022-11-18T14:44:02;12.27;;;7.68;;
49730;SDS011;35622;52.008;5.426;2022-11-18T14:46:28;14.02;;;8.05;;
49730;SDS011;35622;52.008;5.426;2022-11-18T14:48:53;14.32;;;7.88;;
49730;SDS011;35622;52.008;5.426;2022-11-18T14:51:19;10.85;;;7.40;;
49730;SDS011;35622;52.008;5.426;2022-11-18T14:53:45;16.17;;;7.43;;
49730;SDS011;35622;52.008;5.426;2022-11-18T14:56:13;12.82;;;6.95;;
49730;SDS011;35622;52.008;5.426;2022-11-18T14:58:52;10.80;;;7.70;;
49730;SDS011;35622;52.008;5.426;2022-11-18T15:01:18;15.43;;;7.88;;
49730;SDS011;35622;52.008;5.426;2022-11-18T15:03:44;12.02;;;7.85;;
49730;SDS011;35622;52.008;5.426;2022-11-18T15:06:11;11.40;;;7.97;;
49730;SDS011;35622;52.008;5.426;2022-11-18T15:08:42;10.73;;;7.88;;
49730;SDS011;35622;52.008;5.426;2022-11-18T15:11:08;12.82;;;7.88;;
49730;SDS011;35622;52.008;5.426;2022-11-18T15:13:34;11.70;;;8.00;;
49730;SDS011;35622;52.008;5.426;2022-11-18T15:16:01;13.40;;;8.20;;
49730;SDS011;35622;52.008;5.426;2022-11-18T15:18:36;11.20;;;7.35;;
49730;SDS011;35622;52.008;5.426;2022-11-18T15:21:02;12.98;;;8.40;;
49730;SDS011;35622;52.008;5.426;2022-11-18T15:23:27;12.05;;;7.80;;
49730;SDS011;35622;52.008;5.426;2022-11-18T15:25:53;10.90;;;7.63;;
49730;SDS011;35622;52.008;5.426;2022-11-18T15:28:18;11.32;;;8.30;;
49730;SDS011;35622;52.008;5.426;2022-11-18T15:30:44;12.40;;;7.93;;
49730;SDS011;35622;52.008;5.426;2022-11-18T15:33:09;11.85;;;8.23;;
49730;SDS011;35622;52.008;5.426;2022-11-18T15:35:35;12.93;;;7.97;;
49730;SDS011;35622;52.008;5.426;2022-11-18T15:38:00;10.57;;;7.70;;
49730;SDS011;35622;52.008;5.426;2022-11-18T15:46:24;12.30;;;8.30;;
49730;SDS011;35622;52.008;5.426;2022-11-18T15:48:51;11.70;;;8.00;;
49730;SDS011;35622;52.008;5.426;2022-11-18T15:51:21;10.73;;;6.85;;
49730;SDS011;35622;52.008;5.426;2022-11-18T15:53:48;13.00;;;9.60;;
49730;SDS011;35622;52.008;5.426;2022-11-18T15:59:30;12.68;;;7.50;;
49730;SDS011;35622;52.008;5.426;2022-11-18T16:01:56;10.07;;;6.97;;
49730;SDS011;35622;52.008;5.426;2022-11-18T16:04:22;10.68;;;6.75;;
49730;SDS011;35622;52.008;5.426;2022-11-18T16:06:47;11.05;;;6.90;;
49730;SDS011;35622;52.008;5.426;2022-11-18T16:09:13;16.90;;;6.68;;
49730;SDS011;35622;52.008;5.426;2022-11-18T16:11:40;11.07;;;6.78;;
49730;SDS011;35622;52.008;5.426;2022-11-18T16:14:24;12.15;;;7.00;;
49730;SDS011;35622;52.008;5.426;2022-11-18T16:16:52;11.93;;;7.70;;
49730;SDS011;35622;52.008;5.426;2022-11-18T16:19:19;16.67;;;8.10;;
49730;SDS011;35622;52.008;5.426;2022-11-18T16:21:48;14.93;;;8.63;;
49730;SDS011;35622;52.008;5.426;2022-11-18T16:24:20;12.80;;;8.60;;
49730;SDS011;35622;52.008;5.426;2022-11-18T16:26:47;14.10;;;9.30;;
49730;SDS011;35622;52.008;5.426;2022-11-18T16:29:13;14.68;;;9.30;;
49730;SDS011;35622;52.008;5.426;2022-11-18T16:31:40;14.48;;;9.40;;
49730;SDS011;35622;52.008;5.426;2022-11-18T16:36:45;15.07;;;10.32;;
49730;SDS011;35622;52.008;5.426;2022-11-18T16:39:16;17.73;;;11.70;;
49730;SDS011;35622;52.008;5.426;2022-11-18T16:41:43;15.73;;;8.98;;
49730;SDS011;35622;52.008;5.426;2022-11-18T16:44:11;27.55;;;11.27;;
49730;SDS011;35622;52.008;5.426;2022-11-18T16:46:39;14.65;;;9.90;;
49730;SDS011;35622;52.008;5.426;2022-11-18T16:49:10;19.90;;;11.05;;
49730;SDS011;35622;52.008;5.426;2022-11-18T16:51:39;20.25;;;11.75;;
49730;SDS011;35622;52.008;5.426;2022-11-18T16:54:22;19.50;;;11.95;;
49730;SDS011;35622;52.008;5.426;2022-11-18T16:56:53;19.55;;;9.90;;
49730;SDS011;35622;52.008;5.426;2022-11-18T16:59:21;16.38;;;10.30;;
49730;SDS011;35622;52.008;5.426;2022-11-18T17:01:52;17.60;;;10.57;;
49730;SDS011;35622;52.008;5.426;2022-11-18T17:04:19;18.02;;;9.93;;
49730;SDS011;35622;52.008;5.426;2022-11-18T17:06:45;18.30;;;9.75;;
49730;SDS011;35622;52.008;5.426;2022-11-18T17:09:12;17.08;;;10.35;;
49730;SDS011;35622;52.008;5.426;2022-11-18T17:11:40;20.83;;;11.25;;